sensor_id;sensor_type;location;lat;lon;timestamp;P1;durP1;ratioP1;P2;durP2;ratioP2
18659;SDS011;9459;50.254;19.014;2024-03-07T00:00:15;27.05;;;14.43;;
18659;SDS011;9459;50.254;19.014;2024-03-07T00:03:06;27.80;;;14.10;;
18659;SDS011;9459;50.254;19.014;2024-03-07T00:05:36;27.42;;;15.38;;
18659;SDS011;9459;50.254;19.014;2024-03-07T00:10:35;25.55;;;14.25;;
18659;SDS011;9459;50.254;19.014;2024-03-07T00:13:04;28.30;;;15.25;;
18659;SDS011;9459;50.254;19.014;2024-03-07T00:15:32;27.65;;;14.88;;
18659;SDS011;9459;50.254;19.014;2024-03-07T00:18:01;31.15;;;15.15;;
18659;SDS011;9459;50.254;19.014;2024-03-07T00:20:30;31.65;;;16.98;;
18659;SDS011;9459;50.254;19.014;2024-03-07T00:23:00;30.40;;;15.88;;
18659;SDS011;9459;50.254;19.014;2024-03-07T00:25:30;28.80;;;16.23;;
18659;SDS011;9459;50.254;19.014;2024-03-07T00:27:58;34.20;;;17.85;;
18659;SDS011;9459;50.254;19.014;2024-03-07T00:30:30;34.05;;;17.70;;
18659;SDS011;9459;50.254;19.014;2024-03-07T00:33:00;33.87;;;19.30;;
18659;SDS011;9459;50.254;19.014;2024-03-07T00:35:29;36.25;;;19.45;;
18659;SDS011;9459;50.254;19.014;2024-03-07T00:37:57;40.42;;;20.50;;
18659;SDS011;9459;50.254;19.014;2024-03-07T00:40:28;38.25;;;19.83;;
18659;SDS011;9459;50.254;19.014;2024-03-07T00:42:56;43.30;;;21.30;;
18659;SDS011;9459;50.254;19.014;2024-03-07T00:45:26;40.95;;;19.92;;
18659;SDS011;9459;50.254;19.014;2024-03-07T00:47:54;38.78;;;20.25;;
18659;SDS011;9459;50.254;19.014;2024-03-07T00:50:23;44.15;;;22.27;;
18659;SDS011;9459;50.254;19.014;2024-03-07T00:52:52;40.20;;;21.27;;
18659;SDS011;9459;50.254;19.014;2024-03-07T00:55:21;38.78;;;20.08;;
18659;SDS011;9459;50.254;19.014;2024-03-07T00:57:50;40.10;;;20.30;;
18659;SDS011;9459;50.254;19.014;2024-03-07T01:00:19;37.08;;;20.15;;
18659;SDS011;9459;50.254;19.014;2024-03-07T01:02:48;40.03;;;20.80;;
18659;SDS011;9459;50.254;19.014;2024-03-07T01:05:20;40.67;;;20.27;;
18659;SDS011;9459;50.254;19.014;2024-03-07T01:07:49;35.05;;;19.52;;
18659;SDS011;9459;50.254;19.014;2024-03-07T01:10:18;40.88;;;20.23;;
18659;SDS011;9459;50.254;19.014;2024-03-07T01:12:47;37.42;;;20.67;;
18659;SDS011;9459;50.254;19.014;2024-03-07T01:15:18;40.22;;;19.75;;
18659;SDS011;9459;50.254;19.014;2024-03-07T01:17:47;39.83;;;19.63;;
18659;SDS011;9459;50.254;19.014;2024-03-07T01:20:16;38.97;;;20.02;;
18659;SDS011;9459;50.254;19.014;2024-03-07T01:22:45;37.17;;;19.23;;
18659;SDS011;9459;50.254;19.014;2024-03-07T01:25:14;39.63;;;20.67;;
18659;SDS011;9459;50.254;19.014;2024-03-07T01:27:43;37.30;;;19.23;;
18659;SDS011;9459;50.254;19.014;2024-03-07T01:30:14;40.33;;;20.75;;
18659;SDS011;9459;50.254;19.014;2024-03-07T01:32:44;39.80;;;21.05;;
18659;SDS011;9459;50.254;19.014;2024-03-07T01:35:13;38.75;;;20.45;;
18659;SDS011;9459;50.254;19.014;2024-03-07T01:37:42;34.90;;;18.77;;
18659;SDS011;9459;50.254;19.014;2024-03-07T01:40:11;33.92;;;18.33;;
18659;SDS011;9459;50.254;19.014;2024-03-07T01:42:40;36.10;;;20.25;;
18659;SDS011;9459;50.254;19.014;2024-03-07T01:45:09;36.22;;;19.88;;
18659;SDS011;9459;50.254;19.014;2024-03-07T01:47:38;40.50;;;20.20;;
18659;SDS011;9459;50.254;19.014;2024-03-07T01:50:08;41.53;;;22.20;;
18659;SDS011;9459;50.254;19.014;2024-03-07T01:52:38;40.35;;;22.42;;
18659;SDS011;9459;50.254;19.014;2024-03-07T01:55:08;42.83;;;23.83;;
18659;SDS011;9459;50.254;19.014;2024-03-07T01:57:39;42.42;;;23.25;;
18659;SDS011;9459;50.254;19.014;2024-03-07T02:00:09;44.05;;;23.63;;
18659;SDS011;9459;50.254;19.014;2024-03-07T02:02:38;39.72;;;21.95;;
18659;SDS011;9459;50.254;19.014;2024-03-07T02:05:09;44.28;;;22.92;;
18659;SDS011;9459;50.254;19.014;2024-03-07T02:07:37;41.95;;;23.60;;
18659;SDS011;9459;50.254;19.014;2024-03-07T02:10:07;39.83;;;22.17;;
18659;SDS011;9459;50.254;19.014;2024-03-07T02:12:38;44.93;;;23.50;;
18659;SDS011;9459;50.254;19.014;2024-03-07T02:15:08;42.75;;;23.63;;
18659;SDS011;9459;50.254;19.014;2024-03-07T02:17:37;44.75;;;23.33;;
18659;SDS011;9459;50.254;19.014;2024-03-07T02:20:09;40.15;;;22.63;;
18659;SDS011;9459;50.254;19.014;2024-03-07T02:22:41;40.90;;;22.42;;
18659;SDS011;9459;50.254;19.014;2024-03-07T02:25:10;38.80;;;22.15;;
18659;SDS011;9459;50.254;19.014;2024-03-07T02:27:39;41.63;;;21.65;;
18659;SDS011;9459;50.254;19.014;2024-03-07T02:30:08;41.03;;;21.38;;
18659;SDS011;9459;50.254;19.014;2024-03-07T02:32:39;39.20;;;22.48;;
18659;SDS011;9459;50.254;19.014;2024-03-07T02:35:09;36.15;;;19.58;;
18659;SDS011;9459;50.254;19.014;2024-03-07T02:37:38;40.88;;;21.02;;
18659;SDS011;9459;50.254;19.014;2024-03-07T02:40:08;41.97;;;22.65;;
18659;SDS011;9459;50.254;19.014;2024-03-07T02:42:38;45.28;;;24.25;;
18659;SDS011;9459;50.254;19.014;2024-03-07T02:45:10;38.80;;;22.52;;
18659;SDS011;9459;50.254;19.014;2024-03-07T02:47:42;43.17;;;22.30;;
18659;SDS011;9459;50.254;19.014;2024-03-07T02:50:12;40.60;;;23.08;;
18659;SDS011;9459;50.254;19.014;2024-03-07T02:52:42;42.72;;;22.75;;
18659;SDS011;9459;50.254;19.014;2024-03-07T02:55:12;52.15;;;26.10;;
18659;SDS011;9459;50.254;19.014;2024-03-07T02:57:41;47.20;;;25.45;;
18659;SDS011;9459;50.254;19.014;2024-03-07T03:00:10;48.58;;;26.08;;
18659;SDS011;9459;50.254;19.014;2024-03-07T03:02:47;45.72;;;25.00;;
18659;SDS011;9459;50.254;19.014;2024-03-07T03:05:17;43.58;;;23.45;;
18659;SDS011;9459;50.254;19.014;2024-03-07T03:07:46;51.50;;;25.05;;
18659;SDS011;9459;50.254;19.014;2024-03-07T03:10:23;39.00;;;22.88;;
18659;SDS011;9459;50.254;19.014;2024-03-07T03:12:55;42.75;;;23.40;;
18659;SDS011;9459;50.254;19.014;2024-03-07T03:15:25;41.55;;;24.10;;
18659;SDS011;9459;50.254;19.014;2024-03-07T03:17:54;42.22;;;23.60;;
18659;SDS011;9459;50.254;19.014;2024-03-07T03:20:27;47.80;;;23.95;;
18659;SDS011;9459;50.254;19.014;2024-03-07T03:23:02;45.88;;;23.60;;
18659;SDS011;9459;50.254;19.014;2024-03-07T03:25:47;43.83;;;24.50;;
18659;SDS011;9459;50.254;19.014;2024-03-07T03:28:17;42.97;;;23.85;;
18659;SDS011;9459;50.254;19.014;2024-03-07T03:33:18;38.58;;;21.92;;
18659;SDS011;9459;50.254;19.014;2024-03-07T03:35:48;40.60;;;22.25;;
18659;SDS011;9459;50.254;19.014;2024-03-07T03:38:16;38.20;;;22.42;;
18659;SDS011;9459;50.254;19.014;2024-03-07T03:40:48;39.58;;;22.33;;
18659;SDS011;9459;50.254;19.014;2024-03-07T03:43:17;40.47;;;21.92;;
18659;SDS011;9459;50.254;19.014;2024-03-07T03:45:46;44.20;;;23.02;;
18659;SDS011;9459;50.254;19.014;2024-03-07T03:48:15;46.42;;;24.77;;
18659;SDS011;9459;50.254;19.014;2024-03-07T03:50:45;39.42;;;24.23;;
18659;SDS011;9459;50.254;19.014;2024-03-07T03:53:14;39.42;;;21.90;;
18659;SDS011;9459;50.254;19.014;2024-03-07T03:55:43;36.20;;;20.88;;
18659;SDS011;9459;50.254;19.014;2024-03-07T03:58:13;36.65;;;21.20;;
18659;SDS011;9459;50.254;19.014;2024-03-07T04:00:44;35.65;;;20.63;;
18659;SDS011;9459;50.254;19.014;2024-03-07T04:03:12;37.28;;;21.38;;
18659;SDS011;9459;50.254;19.014;2024-03-07T04:05:41;38.42;;;20.73;;
18659;SDS011;9459;50.254;19.014;2024-03-07T04:08:10;34.65;;;21.60;;
18659;SDS011;9459;50.254;19.014;2024-03-07T04:10:39;34.95;;;20.98;;
18659;SDS011;9459;50.254;19.014;2024-03-07T04:13:07;35.45;;;20.40;;
18659;SDS011;9459;50.254;19.014;2024-03-07T04:15:37;37.22;;;21.70;;
18659;SDS011;9459;50.254;19.014;2024-03-07T04:18:10;38.30;;;20.88;;
18659;SDS011;9459;50.254;19.014;2024-03-07T04:20:39;31.25;;;18.60;;
18659;SDS011;9459;50.254;19.014;2024-03-07T04:23:11;32.58;;;20.15;;
18659;SDS011;9459;50.254;19.014;2024-03-07T04:25:40;30.42;;;17.92;;
18659;SDS011;9459;50.254;19.014;2024-03-07T04:28:09;38.47;;;21.30;;
18659;SDS011;9459;50.254;19.014;2024-03-07T04:30:39;33.90;;;20.60;;
18659;SDS011;9459;50.254;19.014;2024-03-07T04:33:09;33.63;;;20.40;;
18659;SDS011;9459;50.254;19.014;2024-03-07T04:35:39;33.85;;;19.65;;
18659;SDS011;9459;50.254;19.014;2024-03-07T04:38:07;32.47;;;19.20;;
18659;SDS011;9459;50.254;19.014;2024-03-07T04:43:07;32.90;;;20.65;;
18659;SDS011;9459;50.254;19.014;2024-03-07T04:45:35;34.78;;;21.50;;
18659;SDS011;9459;50.254;19.014;2024-03-07T04:48:06;34.53;;;20.90;;
18659;SDS011;9459;50.254;19.014;2024-03-07T04:50:35;38.58;;;22.60;;
18659;SDS011;9459;50.254;19.014;2024-03-07T04:53:04;34.95;;;23.00;;
18659;SDS011;9459;50.254;19.014;2024-03-07T04:55:34;37.55;;;23.08;;
18659;SDS011;9459;50.254;19.014;2024-03-07T04:58:02;41.88;;;23.30;;
18659;SDS011;9459;50.254;19.014;2024-03-07T05:00:33;35.47;;;22.52;;
18659;SDS011;9459;50.254;19.014;2024-03-07T05:03:02;41.65;;;22.75;;
18659;SDS011;9459;50.254;19.014;2024-03-07T05:05:33;40.25;;;23.30;;
18659;SDS011;9459;50.254;19.014;2024-03-07T05:08:02;43.22;;;24.52;;
18659;SDS011;9459;50.254;19.014;2024-03-07T05:10:31;39.33;;;22.98;;
18659;SDS011;9459;50.254;19.014;2024-03-07T05:12:59;38.15;;;23.58;;
18659;SDS011;9459;50.254;19.014;2024-03-07T05:15:29;43.17;;;23.38;;
18659;SDS011;9459;50.254;19.014;2024-03-07T05:17:58;41.30;;;23.90;;
18659;SDS011;9459;50.254;19.014;2024-03-07T05:20:28;40.05;;;24.42;;
18659;SDS011;9459;50.254;19.014;2024-03-07T05:22:58;42.55;;;24.75;;
18659;SDS011;9459;50.254;19.014;2024-03-07T05:25:29;38.50;;;22.20;;
18659;SDS011;9459;50.254;19.014;2024-03-07T05:27:58;41.42;;;23.85;;
18659;SDS011;9459;50.254;19.014;2024-03-07T05:30:29;38.92;;;23.90;;
18659;SDS011;9459;50.254;19.014;2024-03-07T05:32:59;41.03;;;22.80;;
18659;SDS011;9459;50.254;19.014;2024-03-07T05:35:29;33.72;;;20.35;;
18659;SDS011;9459;50.254;19.014;2024-03-07T05:37:59;37.05;;;21.15;;
18659;SDS011;9459;50.254;19.014;2024-03-07T05:40:31;36.97;;;21.30;;
18659;SDS011;9459;50.254;19.014;2024-03-07T05:43:00;37.15;;;20.95;;
18659;SDS011;9459;50.254;19.014;2024-03-07T05:45:29;36.67;;;22.13;;
18659;SDS011;9459;50.254;19.014;2024-03-07T05:47:57;43.17;;;26.35;;
18659;SDS011;9459;50.254;19.014;2024-03-07T05:50:43;44.53;;;27.95;;
18659;SDS011;9459;50.254;19.014;2024-03-07T05:53:14;43.75;;;28.08;;
18659;SDS011;9459;50.254;19.014;2024-03-07T05:55:45;46.30;;;27.80;;
18659;SDS011;9459;50.254;19.014;2024-03-07T05:58:14;46.47;;;27.15;;
18659;SDS011;9459;50.254;19.014;2024-03-07T06:00:43;44.45;;;23.95;;
18659;SDS011;9459;50.254;19.014;2024-03-07T06:03:13;45.20;;;23.30;;
18659;SDS011;9459;50.254;19.014;2024-03-07T06:05:43;39.70;;;21.67;;
18659;SDS011;9459;50.254;19.014;2024-03-07T06:08:16;41.85;;;22.83;;
18659;SDS011;9459;50.254;19.014;2024-03-07T06:10:46;45.47;;;23.25;;
18659;SDS011;9459;50.254;19.014;2024-03-07T06:13:17;42.00;;;22.98;;
18659;SDS011;9459;50.254;19.014;2024-03-07T06:15:46;38.55;;;22.20;;
18659;SDS011;9459;50.254;19.014;2024-03-07T06:18:15;44.15;;;23.45;;
18659;SDS011;9459;50.254;19.014;2024-03-07T06:20:44;41.85;;;23.25;;
18659;SDS011;9459;50.254;19.014;2024-03-07T06:23:14;39.35;;;22.80;;
18659;SDS011;9459;50.254;19.014;2024-03-07T06:25:45;38.13;;;23.30;;
18659;SDS011;9459;50.254;19.014;2024-03-07T06:28:17;39.67;;;23.10;;
18659;SDS011;9459;50.254;19.014;2024-03-07T06:30:46;41.95;;;23.98;;
18659;SDS011;9459;50.254;19.014;2024-03-07T06:33:15;38.92;;;22.80;;
18659;SDS011;9459;50.254;19.014;2024-03-07T06:35:49;37.65;;;22.42;;
18659;SDS011;9459;50.254;19.014;2024-03-07T06:38:19;44.10;;;26.88;;
18659;SDS011;9459;50.254;19.014;2024-03-07T06:40:50;41.50;;;23.33;;
18659;SDS011;9459;50.254;19.014;2024-03-07T06:43:19;42.50;;;24.08;;
18659;SDS011;9459;50.254;19.014;2024-03-07T06:45:48;40.13;;;22.13;;
18659;SDS011;9459;50.254;19.014;2024-03-07T06:48:16;40.88;;;23.67;;
18659;SDS011;9459;50.254;19.014;2024-03-07T06:50:46;45.75;;;25.67;;
18659;SDS011;9459;50.254;19.014;2024-03-07T06:53:14;40.40;;;21.23;;
18659;SDS011;9459;50.254;19.014;2024-03-07T06:55:44;43.42;;;22.00;;
18659;SDS011;9459;50.254;19.014;2024-03-07T06:58:14;42.70;;;22.80;;
18659;SDS011;9459;50.254;19.014;2024-03-07T07:00:44;45.95;;;24.33;;
18659;SDS011;9459;50.254;19.014;2024-03-07T07:03:12;42.42;;;22.58;;
18659;SDS011;9459;50.254;19.014;2024-03-07T07:05:41;39.55;;;24.10;;
18659;SDS011;9459;50.254;19.014;2024-03-07T07:08:11;48.38;;;25.42;;
18659;SDS011;9459;50.254;19.014;2024-03-07T07:10:40;41.08;;;24.15;;
18659;SDS011;9459;50.254;19.014;2024-03-07T07:13:09;44.40;;;24.08;;
18659;SDS011;9459;50.254;19.014;2024-03-07T07:15:40;45.08;;;25.17;;
18659;SDS011;9459;50.254;19.014;2024-03-07T07:18:08;38.67;;;22.65;;
18659;SDS011;9459;50.254;19.014;2024-03-07T07:20:37;45.55;;;24.35;;
18659;SDS011;9459;50.254;19.014;2024-03-07T07:23:06;39.67;;;22.88;;
18659;SDS011;9459;50.254;19.014;2024-03-07T07:25:35;43.70;;;24.25;;
18659;SDS011;9459;50.254;19.014;2024-03-07T07:28:04;43.72;;;24.13;;
18659;SDS011;9459;50.254;19.014;2024-03-07T07:30:35;43.25;;;23.90;;
18659;SDS011;9459;50.254;19.014;2024-03-07T07:33:05;52.08;;;27.02;;
18659;SDS011;9459;50.254;19.014;2024-03-07T07:35:34;42.80;;;24.70;;
18659;SDS011;9459;50.254;19.014;2024-03-07T07:38:03;51.97;;;25.65;;
18659;SDS011;9459;50.254;19.014;2024-03-07T07:40:34;48.63;;;24.92;;
18659;SDS011;9459;50.254;19.014;2024-03-07T07:43:03;41.90;;;26.75;;
18659;SDS011;9459;50.254;19.014;2024-03-07T07:45:32;48.15;;;26.00;;
18659;SDS011;9459;50.254;19.014;2024-03-07T07:48:05;49.55;;;28.60;;
18659;SDS011;9459;50.254;19.014;2024-03-07T07:50:34;47.05;;;25.92;;
18659;SDS011;9459;50.254;19.014;2024-03-07T07:53:03;51.20;;;28.25;;
18659;SDS011;9459;50.254;19.014;2024-03-07T07:55:34;41.67;;;25.73;;
18659;SDS011;9459;50.254;19.014;2024-03-07T07:58:03;52.10;;;26.48;;
18659;SDS011;9459;50.254;19.014;2024-03-07T08:00:32;46.10;;;23.40;;
18659;SDS011;9459;50.254;19.014;2024-03-07T08:03:03;45.40;;;25.73;;
18659;SDS011;9459;50.254;19.014;2024-03-07T08:05:34;44.53;;;23.77;;
18659;SDS011;9459;50.254;19.014;2024-03-07T08:08:04;43.97;;;24.38;;
18659;SDS011;9459;50.254;19.014;2024-03-07T08:10:35;41.88;;;23.75;;
18659;SDS011;9459;50.254;19.014;2024-03-07T08:13:05;47.53;;;27.10;;
18659;SDS011;9459;50.254;19.014;2024-03-07T08:15:35;41.65;;;24.42;;
18659;SDS011;9459;50.254;19.014;2024-03-07T08:18:05;41.80;;;23.35;;
18659;SDS011;9459;50.254;19.014;2024-03-07T08:20:39;41.58;;;22.73;;
18659;SDS011;9459;50.254;19.014;2024-03-07T08:23:10;42.13;;;23.10;;
18659;SDS011;9459;50.254;19.014;2024-03-07T08:25:40;39.35;;;23.00;;
18659;SDS011;9459;50.254;19.014;2024-03-07T08:28:08;42.55;;;24.25;;
18659;SDS011;9459;50.254;19.014;2024-03-07T08:30:37;45.95;;;24.80;;
18659;SDS011;9459;50.254;19.014;2024-03-07T08:33:07;42.50;;;24.95;;
18659;SDS011;9459;50.254;19.014;2024-03-07T08:35:37;38.80;;;23.15;;
18659;SDS011;9459;50.254;19.014;2024-03-07T08:38:06;41.67;;;23.48;;
18659;SDS011;9459;50.254;19.014;2024-03-07T08:40:37;42.22;;;25.13;;
18659;SDS011;9459;50.254;19.014;2024-03-07T08:43:06;48.63;;;26.17;;
18659;SDS011;9459;50.254;19.014;2024-03-07T08:45:35;43.72;;;24.33;;
18659;SDS011;9459;50.254;19.014;2024-03-07T08:48:04;47.10;;;24.30;;
18659;SDS011;9459;50.254;19.014;2024-03-07T08:50:36;43.58;;;25.45;;
18659;SDS011;9459;50.254;19.014;2024-03-07T08:53:06;43.20;;;25.52;;
18659;SDS011;9459;50.254;19.014;2024-03-07T08:55:36;53.45;;;28.98;;
18659;SDS011;9459;50.254;19.014;2024-03-07T08:58:04;45.03;;;24.23;;
18659;SDS011;9459;50.254;19.014;2024-03-07T09:00:35;45.28;;;25.33;;
18659;SDS011;9459;50.254;19.014;2024-03-07T09:03:06;42.08;;;24.73;;
18659;SDS011;9459;50.254;19.014;2024-03-07T09:05:41;46.45;;;26.05;;
18659;SDS011;9459;50.254;19.014;2024-03-07T09:08:09;42.78;;;24.25;;
18659;SDS011;9459;50.254;19.014;2024-03-07T09:10:39;42.58;;;23.70;;
18659;SDS011;9459;50.254;19.014;2024-03-07T09:13:09;40.67;;;23.55;;
18659;SDS011;9459;50.254;19.014;2024-03-07T09:15:38;41.78;;;25.13;;
18659;SDS011;9459;50.254;19.014;2024-03-07T09:18:07;40.53;;;22.42;;
18659;SDS011;9459;50.254;19.014;2024-03-07T09:20:36;42.65;;;23.63;;
18659;SDS011;9459;50.254;19.014;2024-03-07T09:23:07;45.05;;;25.83;;
18659;SDS011;9459;50.254;19.014;2024-03-07T09:25:36;43.38;;;25.42;;
18659;SDS011;9459;50.254;19.014;2024-03-07T09:28:06;40.58;;;23.02;;
18659;SDS011;9459;50.254;19.014;2024-03-07T09:30:35;41.50;;;22.95;;
18659;SDS011;9459;50.254;19.014;2024-03-07T09:33:06;47.92;;;25.50;;
18659;SDS011;9459;50.254;19.014;2024-03-07T09:35:39;46.17;;;26.85;;
18659;SDS011;9459;50.254;19.014;2024-03-07T09:38:09;43.20;;;23.92;;
18659;SDS011;9459;50.254;19.014;2024-03-07T09:40:38;42.13;;;23.20;;
18659;SDS011;9459;50.254;19.014;2024-03-07T09:43:07;43.88;;;24.15;;
18659;SDS011;9459;50.254;19.014;2024-03-07T09:45:38;43.90;;;24.70;;
18659;SDS011;9459;50.254;19.014;2024-03-07T09:48:14;44.28;;;25.13;;
18659;SDS011;9459;50.254;19.014;2024-03-07T09:50:45;41.03;;;23.77;;
18659;SDS011;9459;50.254;19.014;2024-03-07T09:53:16;36.92;;;21.70;;
18659;SDS011;9459;50.254;19.014;2024-03-07T09:55:45;44.92;;;25.08;;
18659;SDS011;9459;50.254;19.014;2024-03-07T09:58:14;39.42;;;24.25;;
18659;SDS011;9459;50.254;19.014;2024-03-07T10:00:44;49.28;;;28.27;;
18659;SDS011;9459;50.254;19.014;2024-03-07T10:03:14;42.22;;;23.85;;
18659;SDS011;9459;50.254;19.014;2024-03-07T10:05:44;45.08;;;26.02;;
18659;SDS011;9459;50.254;19.014;2024-03-07T10:08:13;43.45;;;25.58;;
18659;SDS011;9459;50.254;19.014;2024-03-07T10:10:45;44.20;;;25.33;;
18659;SDS011;9459;50.254;19.014;2024-03-07T10:13:14;46.45;;;25.25;;
18659;SDS011;9459;50.254;19.014;2024-03-07T10:15:44;44.50;;;25.90;;
18659;SDS011;9459;50.254;19.014;2024-03-07T10:18:15;48.75;;;25.80;;
18659;SDS011;9459;50.254;19.014;2024-03-07T10:20:46;51.67;;;29.02;;
18659;SDS011;9459;50.254;19.014;2024-03-07T10:23:18;52.40;;;29.42;;
18659;SDS011;9459;50.254;19.014;2024-03-07T10:25:49;46.55;;;26.08;;
18659;SDS011;9459;50.254;19.014;2024-03-07T10:28:17;49.63;;;25.35;;
18659;SDS011;9459;50.254;19.014;2024-03-07T10:30:48;48.72;;;27.95;;
18659;SDS011;9459;50.254;19.014;2024-03-07T10:33:18;51.97;;;28.77;;
18659;SDS011;9459;50.254;19.014;2024-03-07T10:35:47;42.45;;;24.75;;
18659;SDS011;9459;50.254;19.014;2024-03-07T10:38:17;42.97;;;25.17;;
18659;SDS011;9459;50.254;19.014;2024-03-07T10:40:47;45.53;;;25.80;;
18659;SDS011;9459;50.254;19.014;2024-03-07T10:43:17;44.05;;;26.08;;
18659;SDS011;9459;50.254;19.014;2024-03-07T10:45:48;45.25;;;26.83;;
18659;SDS011;9459;50.254;19.014;2024-03-07T10:48:19;46.13;;;24.85;;
18659;SDS011;9459;50.254;19.014;2024-03-07T10:50:54;45.67;;;25.85;;
18659;SDS011;9459;50.254;19.014;2024-03-07T10:53:31;44.20;;;24.05;;
18659;SDS011;9459;50.254;19.014;2024-03-07T10:56:08;42.00;;;24.02;;
18659;SDS011;9459;50.254;19.014;2024-03-07T10:58:51;41.40;;;23.58;;
18659;SDS011;9459;50.254;19.014;2024-03-07T11:01:26;47.60;;;26.50;;
18659;SDS011;9459;50.254;19.014;2024-03-07T11:04:00;44.97;;;25.42;;
18659;SDS011;9459;50.254;19.014;2024-03-07T11:09:01;42.00;;;23.58;;
18659;SDS011;9459;50.254;19.014;2024-03-07T11:11:39;41.80;;;24.27;;
18659;SDS011;9459;50.254;19.014;2024-03-07T11:14:09;42.70;;;24.38;;
18659;SDS011;9459;50.254;19.014;2024-03-07T11:16:39;44.72;;;25.17;;
18659;SDS011;9459;50.254;19.014;2024-03-07T11:19:17;45.35;;;25.75;;
18659;SDS011;9459;50.254;19.014;2024-03-07T11:21:49;48.20;;;26.13;;
18659;SDS011;9459;50.254;19.014;2024-03-07T11:24:27;42.10;;;24.30;;
18659;SDS011;9459;50.254;19.014;2024-03-07T11:27:01;43.47;;;25.30;;
18659;SDS011;9459;50.254;19.014;2024-03-07T11:29:41;42.67;;;24.40;;
18659;SDS011;9459;50.254;19.014;2024-03-07T11:32:12;47.20;;;23.23;;
18659;SDS011;9459;50.254;19.014;2024-03-07T11:34:42;40.78;;;24.38;;
18659;SDS011;9459;50.254;19.014;2024-03-07T11:37:17;49.33;;;26.20;;
18659;SDS011;9459;50.254;19.014;2024-03-07T11:39:50;42.60;;;23.40;;
18659;SDS011;9459;50.254;19.014;2024-03-07T11:42:26;44.30;;;26.45;;
18659;SDS011;9459;50.254;19.014;2024-03-07T11:44:56;47.45;;;28.40;;
18659;SDS011;9459;50.254;19.014;2024-03-07T11:47:25;48.90;;;27.98;;
18659;SDS011;9459;50.254;19.014;2024-03-07T11:52:26;51.13;;;27.48;;
18659;SDS011;9459;50.254;19.014;2024-03-07T11:54:55;48.53;;;27.85;;
18659;SDS011;9459;50.254;19.014;2024-03-07T11:57:33;52.30;;;26.42;;
18659;SDS011;9459;50.254;19.014;2024-03-07T12:00:02;49.45;;;26.88;;
18659;SDS011;9459;50.254;19.014;2024-03-07T12:02:36;44.30;;;25.33;;
18659;SDS011;9459;50.254;19.014;2024-03-07T12:05:05;50.08;;;26.35;;
18659;SDS011;9459;50.254;19.014;2024-03-07T12:07:35;46.33;;;24.13;;
18659;SDS011;9459;50.254;19.014;2024-03-07T12:10:07;48.30;;;25.05;;
18659;SDS011;9459;50.254;19.014;2024-03-07T12:12:38;47.35;;;25.20;;
18659;SDS011;9459;50.254;19.014;2024-03-07T12:15:07;50.13;;;27.13;;
18659;SDS011;9459;50.254;19.014;2024-03-07T12:17:48;53.47;;;26.67;;
18659;SDS011;9459;50.254;19.014;2024-03-07T12:20:17;58.43;;;28.93;;
18659;SDS011;9459;50.254;19.014;2024-03-07T12:22:59;56.50;;;28.25;;
18659;SDS011;9459;50.254;19.014;2024-03-07T12:25:32;53.25;;;27.05;;
18659;SDS011;9459;50.254;19.014;2024-03-07T12:28:03;57.72;;;30.05;;
18659;SDS011;9459;50.254;19.014;2024-03-07T12:30:35;54.17;;;28.70;;
18659;SDS011;9459;50.254;19.014;2024-03-07T12:33:08;46.42;;;25.40;;
18659;SDS011;9459;50.254;19.014;2024-03-07T12:35:37;44.80;;;26.63;;
18659;SDS011;9459;50.254;19.014;2024-03-07T12:40:40;47.13;;;28.05;;
18659;SDS011;9459;50.254;19.014;2024-03-07T12:43:14;47.80;;;25.38;;
18659;SDS011;9459;50.254;19.014;2024-03-07T12:45:45;56.05;;;29.13;;
18659;SDS011;9459;50.254;19.014;2024-03-07T12:48:16;48.95;;;27.17;;
18659;SDS011;9459;50.254;19.014;2024-03-07T12:50:45;50.78;;;28.00;;
18659;SDS011;9459;50.254;19.014;2024-03-07T12:53:14;47.53;;;25.15;;
18659;SDS011;9459;50.254;19.014;2024-03-07T12:55:45;52.70;;;26.88;;
18659;SDS011;9459;50.254;19.014;2024-03-07T12:58:15;48.63;;;24.05;;
18659;SDS011;9459;50.254;19.014;2024-03-07T13:00:43;41.05;;;21.88;;
18659;SDS011;9459;50.254;19.014;2024-03-07T13:03:12;46.10;;;22.00;;
18659;SDS011;9459;50.254;19.014;2024-03-07T13:05:41;45.35;;;22.45;;
18659;SDS011;9459;50.254;19.014;2024-03-07T13:08:10;43.75;;;22.85;;
18659;SDS011;9459;50.254;19.014;2024-03-07T13:10:39;41.28;;;20.52;;
18659;SDS011;9459;50.254;19.014;2024-03-07T13:13:08;41.60;;;22.85;;
18659;SDS011;9459;50.254;19.014;2024-03-07T13:15:39;41.28;;;20.90;;
18659;SDS011;9459;50.254;19.014;2024-03-07T13:18:09;45.85;;;22.30;;
18659;SDS011;9459;50.254;19.014;2024-03-07T13:20:38;43.33;;;22.48;;
18659;SDS011;9459;50.254;19.014;2024-03-07T13:23:10;42.25;;;22.35;;
18659;SDS011;9459;50.254;19.014;2024-03-07T13:25:39;51.38;;;24.63;;
18659;SDS011;9459;50.254;19.014;2024-03-07T13:28:09;45.95;;;23.75;;
18659;SDS011;9459;50.254;19.014;2024-03-07T13:30:42;45.17;;;22.15;;
18659;SDS011;9459;50.254;19.014;2024-03-07T13:33:17;46.88;;;22.50;;
18659;SDS011;9459;50.254;19.014;2024-03-07T13:35:45;42.88;;;22.73;;
18659;SDS011;9459;50.254;19.014;2024-03-07T13:38:14;47.97;;;24.52;;
18659;SDS011;9459;50.254;19.014;2024-03-07T13:40:43;46.17;;;23.92;;
18659;SDS011;9459;50.254;19.014;2024-03-07T13:43:12;46.13;;;23.05;;
18659;SDS011;9459;50.254;19.014;2024-03-07T13:45:43;44.90;;;22.63;;
18659;SDS011;9459;50.254;19.014;2024-03-07T13:48:12;44.47;;;22.20;;
18659;SDS011;9459;50.254;19.014;2024-03-07T13:50:41;55.35;;;25.63;;
18659;SDS011;9459;50.254;19.014;2024-03-07T13:53:25;42.63;;;22.98;;
18659;SDS011;9459;50.254;19.014;2024-03-07T13:59:19;56.60;;;23.02;;
18659;SDS011;9459;50.254;19.014;2024-03-07T14:02:13;41.55;;;19.50;;
18659;SDS011;9459;50.254;19.014;2024-03-07T14:05:00;35.92;;;18.33;;
18659;SDS011;9459;50.254;19.014;2024-03-07T14:07:48;30.90;;;16.57;;
18659;SDS011;9459;50.254;19.014;2024-03-07T14:13:35;31.80;;;18.17;;
18659;SDS011;9459;50.254;19.014;2024-03-07T14:16:15;34.25;;;18.05;;
18659;SDS011;9459;50.254;19.014;2024-03-07T14:19:09;31.92;;;18.30;;
18659;SDS011;9459;50.254;19.014;2024-03-07T14:22:16;32.75;;;17.17;;
18659;SDS011;9459;50.254;19.014;2024-03-07T14:25:03;32.83;;;17.45;;
18659;SDS011;9459;50.254;19.014;2024-03-07T14:27:50;31.58;;;17.92;;
18659;SDS011;9459;50.254;19.014;2024-03-07T14:30:37;35.83;;;20.30;;
18659;SDS011;9459;50.254;19.014;2024-03-07T14:33:11;31.42;;;16.88;;
18659;SDS011;9459;50.254;19.014;2024-03-07T14:36:02;33.53;;;16.85;;
18659;SDS011;9459;50.254;19.014;2024-03-07T14:38:40;38.30;;;20.10;;
18659;SDS011;9459;50.254;19.014;2024-03-07T14:41:15;30.90;;;17.05;;
18659;SDS011;9459;50.254;19.014;2024-03-07T14:43:44;32.35;;;17.42;;
18659;SDS011;9459;50.254;19.014;2024-03-07T14:46:14;33.05;;;18.77;;
18659;SDS011;9459;50.254;19.014;2024-03-07T14:48:43;31.33;;;17.60;;
18659;SDS011;9459;50.254;19.014;2024-03-07T14:51:13;27.10;;;15.15;;
18659;SDS011;9459;50.254;19.014;2024-03-07T14:53:42;28.63;;;16.77;;
18659;SDS011;9459;50.254;19.014;2024-03-07T14:56:12;46.97;;;27.52;;
18659;SDS011;9459;50.254;19.014;2024-03-07T14:58:41;27.70;;;16.20;;
18659;SDS011;9459;50.254;19.014;2024-03-07T15:01:09;23.80;;;13.88;;
18659;SDS011;9459;50.254;19.014;2024-03-07T15:03:39;25.27;;;13.77;;